Time;durP1;ratioP1;P1;durP2;ratioP2;P2;SDS_P1;SDS_P2;PMS_P1;PMS_P2;Temp;Humidity;BMP_temperature;BMP_pressure;BME280_temperature;BME280_humidity;BME280_pressure;Samples;Min_cycle;Max_cycle;Signal;HPM_P1;HPM_P2
2022/12/09 00:02:19;;;;;;;79.88;33.47;;;;;;;0.94;86.14;99600.94;10454386;28;20087;-75
2022/12/09 00:07:22;;;;;;;81.00;34.50;;;;;;;1.01;86.18;99607.56;10437170;28;20067;-75
2022/12/09 00:12:25;;;;;;;79.57;32.20;;;;;;;1.08;86.03;99610.75;10436399;28;20141;-74
2022/12/09 00:17:31;;;;;;;80.80;34.13;;;;;;;1.09;86.03;99611.59;10436834;28;20080;-74
2022/12/09 00:22:34;;;;;;;85.35;35.92;;;;;;;1.03;85.73;99613.66;10433365;28;20447;-75
2022/12/09 00:27:38;;;;;;;82.28;34.78;;;;;;;1.04;85.72;99618.00;10435138;28;20149;-74
2022/12/09 00:32:42;;;;;;;86.15;35.95;;;;;;;1.06;85.73;99612.63;10453702;28;20037;-74
2022/12/09 00:37:46;;;;;;;86.32;34.35;;;;;;;1.04;85.82;99614.50;10448117;28;20135;-75
2022/12/09 00:42:50;;;;;;;88.50;34.17;;;;;;;1.03;85.70;99612.78;10434643;28;20055;-74
2022/12/09 00:47:55;;;;;;;92.07;35.13;;;;;;;1.02;85.57;99614.59;10435776;28;20067;-74
2022/12/09 00:52:58;;;;;;;81.97;32.17;;;;;;;1.03;85.74;99610.16;10434136;28;20041;-74
2022/12/09 00:58:02;;;;;;;79.25;32.03;;;;;;;1.04;85.71;99606.56;10435860;28;20055;-74
2022/12/09 01:03:06;;;;;;;77.90;32.80;;;;;;;0.94;85.44;99613.31;10433051;28;20045;-74
2022/12/09 01:08:11;;;;;;;74.00;30.60;;;;;;;0.94;85.30;99610.66;10461616;28;20072;-74
2022/12/09 01:13:15;;;;;;;79.45;29.02;;;;;;;0.89;84.67;99612.69;10440547;28;20037;-74
2022/12/09 01:18:20;;;;;;;73.93;31.27;;;;;;;0.97;85.74;99616.63;10442729;28;20091;-74
2022/12/09 01:23:23;;;;;;;74.60;31.05;;;;;;;0.97;85.29;99621.91;10442713;28;20045;-74
2022/12/09 01:28:26;;;;;;;84.25;32.17;;;;;;;1.01;85.62;99620.78;10473557;22;20128;-81
2022/12/09 01:33:30;;;;;;;75.72;30.40;;;;;;;1.04;85.57;99620.66;10462082;28;20490;-80
2022/12/09 01:38:34;;;;;;;72.80;28.50;;;;;;;1.04;85.54;99617.13;10464649;28;20468;-80
2022/12/09 01:43:37;;;;;;;70.07;28.60;;;;;;;1.04;85.36;99623.31;10445829;28;20051;-81
2022/12/09 01:48:46;;;;;;;65.05;28.70;;;;;;;0.95;85.11;99615.84;10432088;28;20045;-80
2022/12/09 01:53:51;;;;;;;74.57;29.33;;;;;;;1.01;85.34;99612.88;10440212;28;20055;-80
2022/12/09 01:59:01;;;;;;;67.35;29.27;;;;;;;1.08;85.55;99616.06;10419966;28;20402;-81
2022/12/09 02:04:06;;;;;;;72.55;28.27;;;;;;;1.12;85.49;99614.09;10446138;28;20037;-81
2022/12/09 02:09:09;;;;;;;71.40;28.23;;;;;;;1.10;85.36;99613.31;10439190;28;20049;-82
2022/12/09 02:14:24;;;;;;;70.32;29.25;;;;;;;1.15;85.84;99614.78;10444675;28;20048;-81
2022/12/09 02:19:39;;;;;;;;;;;;;;;1.15;85.66;99614.78;10444303;28;20046;-80
2022/12/09 02:24:53;;;;;;;75.30;29.73;;;;;;;1.13;85.60;99621.09;10461115;28;19921;-81
2022/12/09 02:30:08;;;;;;;75.60;30.05;;;;;;;1.14;85.65;99610.41;10442407;28;20292;-80
2022/12/09 02:35:22;;;;;;;64.15;27.20;;;;;;;1.13;85.39;99605.22;10444578;28;20521;-80
2022/12/09 02:40:31;;;;;;;64.57;26.77;;;;;;;1.14;85.35;99607.78;10442735;28;20067;-80
2022/12/09 02:45:37;;;;;;;67.15;27.20;;;;;;;1.15;85.41;99600.69;10459766;28;20041;-80
2022/12/09 02:50:45;;;;;;;63.58;26.13;;;;;;;1.15;85.34;99590.97;10445663;28;20041;-81
2022/12/09 02:55:49;;;;;;;68.43;29.27;;;;;;;1.12;85.08;99588.47;10453694;28;20071;-80
2022/12/09 03:00:54;;;;;;;57.72;25.15;;;;;;;1.17;85.29;99596.19;10441561;28;20506;-80
2022/12/09 03:06:06;;;;;;;65.85;27.15;;;;;;;1.19;85.21;99583.72;10459657;28;20041;-80
2022/12/09 03:11:12;;;;;;;58.50;25.93;;;;;;;1.18;85.16;99587.28;10460489;28;20109;-79
2022/12/09 03:16:21;;;;;;;62.83;25.10;;;;;;;1.13;84.65;99586.72;10459895;28;20040;-80
2022/12/09 03:21:32;;;;;;;57.90;25.55;;;;;;;1.19;84.93;99578.44;10459020;28;20041;-80
2022/12/09 03:26:38;;;;;;;55.22;26.00;;;;;;;1.18;84.90;99571.41;10458973;28;20124;-80
2022/12/09 03:31:42;;;;;;;51.90;22.70;;;;;;;1.17;85.02;99570.56;10438153;28;20044;-79
2022/12/09 03:36:50;;;;;;;43.95;21.42;;;;;;;1.18;84.95;99574.06;10459232;28;20482;-80
2022/12/09 03:41:57;;;;;;;39.95;18.02;;;;;;;1.06;84.57;99575.59;10458743;28;20153;-80
2022/12/09 03:47:00;;;;;;;38.00;18.52;;;;;;;1.04;84.54;99564.25;10430420;28;20494;-80
2022/12/09 03:52:11;;;;;;;36.20;17.10;;;;;;;0.95;84.01;99567.41;10465391;28;20135;-80
2022/12/09 03:57:16;;;;;;;26.83;14.18;;;;;;;0.84;83.97;99566.19;10469860;28;20041;-79
2022/12/09 04:02:22;;;;;;;26.30;12.32;;;;;;;0.87;84.04;99562.50;10455725;28;20045;-80
2022/12/09 04:07:27;;;;;;;20.60;11.07;;;;;;;0.78;83.74;99560.38;10455786;28;20443;-79
2022/12/09 04:12:30;;;;;;;19.92;10.65;;;;;;;0.67;83.46;99554.81;10442651;28;20190;-79
2022/12/09 04:17:33;;;;;;;18.95;10.20;;;;;;;0.64;83.49;99550.53;10457362;28;20052;-79
2022/12/09 04:22:37;;;;;;;19.60;10.60;;;;;;;0.66;83.50;99551.31;10437874;28;20049;-80
2022/12/09 04:27:40;;;;;;;19.27;10.73;;;;;;;0.64;83.37;99544.41;10444175;28;20053;-78
2022/12/09 04:32:43;;;;;;;16.30;10.07;;;;;;;0.58;83.33;99550.88;10468115;28;20490;-80
2022/12/09 04:37:49;;;;;;;20.08;10.80;;;;;;;0.49;82.84;99544.25;10459459;28;20053;-80
2022/12/09 04:42:52;;;;;;;18.60;10.55;;;;;;;0.45;83.08;99548.00;10450025;28;20512;-81
2022/12/09 04:47:55;;;;;;;21.73;11.52;;;;;;;0.43;83.68;99552.53;10440947;28;20069;-80
2022/12/09 04:52:59;;;;;;;25.75;12.95;;;;;;;0.44;83.39;99550.72;10458358;28;20073;-80
2022/12/09 04:58:02;;;;;;;20.35;11.77;;;;;;;0.36;83.29;99548.50;10458476;28;20079;-81
2022/12/09 05:03:05;;;;;;;22.45;11.65;;;;;;;0.29;83.75;99550.59;10442935;28;20045;-81
2022/12/09 05:08:10;;;;;;;23.05;12.38;;;;;;;0.16;83.51;99550.41;10460396;28;20053;-80
2022/12/09 05:13:13;;;;;;;24.58;12.35;;;;;;;0.21;83.73;99551.94;10459311;28;20049;-80
2022/12/09 05:18:16;;;;;;;24.35;12.40;;;;;;;0.16;83.94;99554.78;10458069;28;20441;-81
2022/12/09 05:23:21;;;;;;;25.10;13.02;;;;;;;0.20;83.95;99544.94;10456609;28;20037;-80
2022/12/09 05:28:24;;;;;;;21.27;11.98;;;;;;;0.03;84.14;99549.31;10456878;28;20052;-81
2022/12/09 05:33:28;;;;;;;26.02;15.18;;;;;;;0.24;84.10;99551.78;10456693;28;20091;-80
2022/12/09 05:38:32;;;;;;;28.67;15.05;;;;;;;0.37;84.11;99537.00;10457727;28;20076;-81
2022/12/09 05:43:36;;;;;;;25.13;14.07;;;;;;;0.41;83.84;99546.44;10457067;28;20091;-81
2022/12/09 05:48:39;;;;;;;26.45;13.88;;;;;;;0.51;84.15;99542.41;10469224;28;20116;-80
2022/12/09 05:53:44;;;;;;;28.52;14.18;;;;;;;0.51;83.87;99533.63;10497999;28;20048;-77
2022/12/09 05:58:48;;;;;;;31.75;15.50;;;;;;;0.56;84.37;99532.44;10465108;28;20072;-82
2022/12/09 06:03:52;;;;;;;32.35;15.82;;;;;;;0.64;84.34;99523.25;10446492;28;20546;-82
2022/12/09 06:08:59;;;;;;;29.08;15.43;;;;;;;0.66;84.57;99540.75;10467040;28;20080;-82
2022/12/09 06:14:03;;;;;;;32.88;16.13;;;;;;;0.68;84.67;99540.66;10465489;28;20064;-81
2022/12/09 06:19:06;;;;;;;28.73;15.00;;;;;;;0.65;84.32;99540.81;10466121;28;20486;-81
2022/12/09 06:24:11;;;;;;;32.17;17.17;;;;;;;0.66;84.53;99545.16;10465577;28;20033;-82
2022/12/09 06:29:14;;;;;;;31.45;16.67;;;;;;;0.72;84.75;99545.69;10464547;28;20064;-82
2022/12/09 06:34:17;;;;;;;31.60;16.75;;;;;;;0.82;84.93;99541.63;10464404;28;20048;-81
2022/12/09 06:39:21;;;;;;;27.90;16.05;;;;;;;0.87;84.80;99530.78;10464366;28;20103;-81
2022/12/09 06:44:25;;;;;;;29.63;16.55;;;;;;;0.79;84.45;99533.00;10464354;28;20087;-80
2022/12/09 06:49:28;;;;;;;29.45;15.88;;;;;;;0.69;83.72;99524.72;10458833;28;20136;-81
2022/12/09 06:54:33;;;;;;;26.40;15.27;;;;;;;0.59;83.62;99527.00;10420728;28;20704;-80
2022/12/09 06:59:37;;;;;;;29.45;16.10;;;;;;;0.61;84.26;99530.41;10462785;28;20482;-82
2022/12/09 07:04:39;;;;;;;30.98;16.92;;;;;;;0.57;84.19;99542.06;10476613;28;20045;-82
2022/12/09 07:09:44;;;;;;;32.20;16.38;;;;;;;0.45;83.99;99532.16;10479212;28;20071;-80
2022/12/09 07:14:48;;;;;;;31.45;17.50;;;;;;;0.33;83.86;99538.94;10491196;28;20489;-82
2022/12/09 07:19:50;;;;;;;32.22;17.70;;;;;;;0.19;83.83;99538.78;10459534;28;20509;-81
2022/12/09 07:24:55;;;;;;;37.60;19.77;;;;;;;0.08;83.85;99539.38;10459425;28;20485;-81
2022/12/09 07:29:59;;;;;;;33.72;18.52;;;;;;;0.04;83.79;99544.88;10441604;28;20095;-80
2022/12/09 07:35:02;;;;;;;36.50;17.98;;;;;;;-0.02;84.18;99548.69;10460636;28;20045;-81
2022/12/09 07:40:08;;;;;;;38.33;19.98;;;;;;;0.06;84.46;99551.78;10450470;28;20532;-79
2022/12/09 07:45:11;;;;;;;45.72;21.83;;;;;;;0.10;84.27;99558.59;10473985;28;20095;-81
2022/12/09 07:50:15;;;;;;;39.13;15.40;;;;;;;0.15;84.35;99561.03;10458549;28;20076;-81
2022/12/09 07:55:20;;;;;;;112.82;35.72;;;;;;;0.67;85.24;99574.16;10460260;28;20516;-80
2022/12/09 08:00:23;;;;;;;24.60;13.57;;;;;;;1.02;84.04;99568.78;10469858;28;20069;-80
2022/12/09 08:05:26;;;;;;;29.30;15.25;;;;;;;1.33;84.54;99559.16;10440642;28;20431;-81
2022/12/09 08:10:30;;;;;;;33.22;16.00;;;;;;;1.31;83.32;99575.09;10436426;28;20076;-81
2022/12/09 08:15:33;;;;;;;33.85;17.05;;;;;;;1.14;83.42;99575.19;10440341;28;20532;-81
2022/12/09 08:20:36;;;;;;;36.25;19.40;;;;;;;1.01;83.54;99565.25;10439855;28;20049;-82
2022/12/09 08:25:41;;;;;;;43.05;21.17;;;;;;;0.94;83.66;99568.34;10458484;28;20080;-81
2022/12/09 08:30:45;;;;;;;44.35;21.98;;;;;;;0.92;83.70;99576.34;10458388;28;20047;-81
2022/12/09 08:35:48;;;;;;;44.03;21.52;;;;;;;1.01;83.81;99577.63;10480087;28;20041;-80
2022/12/09 08:40:53;;;;;;;47.83;22.15;;;;;;;0.91;83.69;99577.28;10463100;28;20052;-82
2022/12/09 08:46:00;;;;;;;47.17;22.42;;;;;;;1.04;84.16;99586.28;10457985;28;20088;-82
2022/12/09 08:51:04;;;;;;;46.90;23.27;;;;;;;1.20;84.16;99580.97;10453973;28;20048;-82
2022/12/09 08:56:10;;;;;;;48.35;23.33;;;;;;;1.28;84.05;99580.56;10453386;28;20451;-81
2022/12/09 09:01:16;;;;;;;44.17;21.85;;;;;;;1.31;84.17;99580.38;10445543;28;20045;-81
2022/12/09 09:06:19;;;;;;;45.08;22.02;;;;;;;1.38;84.32;99576.47;10436892;28;20075;-82
2022/12/09 09:11:25;;;;;;;47.42;23.20;;;;;;;1.31;83.23;99580.38;10449936;28;20048;-81
2022/12/09 09:16:28;;;;;;;49.30;24.00;;;;;;;1.37;83.66;99576.53;10445773;28;20037;-81
2022/12/09 09:21:32;;;;;;;50.70;22.65;;;;;;;1.41;82.97;99578.09;10442360;28;20525;-82
2022/12/09 09:26:39;;;;;;;41.83;21.48;;;;;;;1.50;83.09;99593.44;10493243;28;20106;-81
2022/12/09 09:31:42;;;;;;;44.63;23.48;;;;;;;1.55;81.67;99594.06;10444873;28;20072;-81
2022/12/09 09:36:46;;;;;;;45.83;23.27;;;;;;;1.52;82.49;99594.22;10466409;28;20056;-83
2022/12/09 09:41:53;;;;;;;38.60;19.20;;;;;;;1.43;81.12;99602.69;10449824;28;20052;-82
2022/12/09 09:46:59;;;;;;;37.47;20.35;;;;;;;1.27;79.01;99608.81;10467591;28;20556;-81
2022/12/09 09:52:08;;;;;;;44.28;22.02;;;;;;;1.34;79.70;99604.03;10448671;28;20478;-82
2022/12/09 09:57:17;;;;;;;40.03;20.38;;;;;;;1.34;79.06;99605.81;10449649;28;20117;-82
2022/12/09 10:02:36;;;;;;;46.40;21.52;;;;;;;1.28;78.31;99605.22;10463447;28;20516;-80
2022/12/09 10:07:42;;;;;;;42.20;22.42;;;;;;;1.25;78.38;99599.25;10462003;28;20051;-80
2022/12/09 10:13:01;;;;;;;41.15;21.95;;;;;;;1.28;78.13;99593.78;10456821;28;20513;-81
2022/12/09 10:18:17;;;;;;;34.05;18.50;;;;;;;1.40;78.33;99586.94;10458467;28;20051;-81
2022/12/09 10:23:21;;;;;;;31.38;16.75;;;;;;;1.45;78.44;99577.84;10460914;28;20056;-82
2022/12/09 10:28:30;;;;;;;31.00;15.85;;;;;;;1.49;78.08;99576.72;10462812;28;20037;-82
2022/12/09 10:33:37;;;;;;;32.80;17.27;;;;;;;1.59;77.21;99565.59;10459801;28;20055;-81
2022/12/09 10:38:41;;;;;;;31.65;16.38;;;;;;;1.71;77.34;99571.06;10462885;28;20040;-81
2022/12/09 10:43:45;;;;;;;33.83;17.52;;;;;;;1.70;78.08;99564.06;10447539;28;20037;-81
2022/12/09 10:48:57;;;;;;;33.35;17.98;;;;;;;1.86;77.84;99561.38;10448665;28;20087;-80
2022/12/09 10:54:03;;;;;;;29.93;15.93;;;;;;;1.92;78.09;99561.03;10459300;28;20044;-80
2022/12/09 10:59:19;;;;;;;28.33;15.80;;;;;;;2.15;79.07;99549.06;10465175;28;20489;-81
2022/12/09 11:04:24;;;;;;;26.98;14.45;;;;;;;1.95;76.28;99552.06;10455475;28;20398;-81
2022/12/09 11:09:31;;;;;;;24.58;14.00;;;;;;;1.91;76.65;99554.00;10446362;28;20056;-81
2022/12/09 11:14:38;;;;;;;29.50;16.15;;;;;;;1.95;77.80;99554.72;10464752;28;20068;-80
2022/12/09 11:19:44;;;;;;;30.98;17.08;;;;;;;1.94;78.53;99545.88;10464363;28;20052;-80
2022/12/09 11:24:47;;;;;;;37.05;18.75;;;;;;;2.08;79.07;99544.22;10463463;28;20405;-80
2022/12/09 11:30:05;;;;;;;34.60;20.02;;;;;;;2.05;78.24;99542.59;10462715;28;20444;-80
2022/12/09 11:35:17;;;;;;;32.22;18.55;;;;;;;1.98;75.45;99545.72;10458000;28;20033;-80
2022/12/09 11:40:21;;;;;;;33.45;18.90;;;;;;;2.01;75.72;99538.44;10474270;28;20045;-79
2022/12/09 11:45:29;;;;;;;34.28;19.23;;;;;;;2.36;76.98;99538.16;10462065;28;20076;-80
2022/12/09 11:50:35;;;;;;;36.40;18.98;;;;;;;2.50;75.65;99537.31;10434915;28;20056;-79
2022/12/09 11:55:44;;;;;;;34.90;19.13;;;;;;;2.34;73.42;99537.38;10462990;28;20037;-79
2022/12/09 12:00:58;;;;;;;32.88;17.27;;;;;;;2.27;75.42;99539.53;10463188;28;20044;-79
2022/12/09 12:06:04;;;;;;;35.80;18.55;;;;;;;2.38;77.39;99530.94;10444280;28;20055;-79
2022/12/09 12:11:09;;;;;;;35.60;16.83;;;;;;;2.33;77.31;99533.00;10440808;28;20052;-79
2022/12/09 12:16:26;;;;;;;30.23;18.08;;;;;;;2.14;74.98;99525.34;10483121;28;20200;-79
2022/12/09 12:21:45;;;;;;;33.63;19.13;;;;;;;2.31;78.00;99532.28;10494946;28;20041;-79
2022/12/09 12:27:03;;;;;;;33.75;18.13;;;;;;;2.47;77.77;99529.50;10466269;28;20055;-80
2022/12/09 12:32:39;;;;;;;34.53;19.10;;;;;;;2.32;75.91;99526.84;10467055;28;20041;-80
2022/12/09 12:37:50;;;;;;;31.30;18.08;;;;;;;2.15;72.18;99527.03;10435022;28;20049;-79
2022/12/09 12:48:34;;;;;;;37.60;19.53;;;;;;;2.47;74.05;99530.41;10471334;28;20520;-79
2022/12/09 12:53:45;;;;;;;38.65;21.25;;;;;;;2.40;75.93;99511.34;10461341;28;20041;-80
2022/12/09 12:59:01;;;;;;;33.72;19.67;;;;;;;2.65;77.37;99509.03;10459918;28;20041;-79
2022/12/09 13:04:17;;;;;;;36.17;20.75;;;;;;;3.40;79.22;99497.13;10449537;28;20075;-80
2022/12/09 13:09:25;;;;;;;32.70;19.05;;;;;;;3.95;73.34;99498.78;10459082;28;20053;-79
2022/12/09 13:14:33;;;;;;;31.63;19.13;;;;;;;3.79;70.83;99492.78;10447021;28;20045;-78
2022/12/09 13:19:41;;;;;;;31.80;18.77;;;;;;;3.34;71.89;99492.19;10459742;28;20097;-81
2022/12/09 13:24:51;;;;;;;31.83;19.10;;;;;;;2.96;72.83;99497.31;10441520;28;20076;-78
2022/12/09 13:30:06;;;;;;;32.03;19.30;;;;;;;2.78;72.81;99500.19;10432687;28;20060;-79
2022/12/09 13:35:16;;;;;;;37.13;20.30;;;;;;;2.49;73.34;99503.78;10459036;28;20116;-79
2022/12/09 13:40:35;;;;;;;31.05;17.92;;;;;;;2.24;73.65;99499.13;10459069;28;20135;-80
2022/12/09 13:45:49;;;;;;;34.25;19.73;;;;;;;1.99;75.16;99492.66;10471279;28;20052;-81
2022/12/09 13:50:58;;;;;;;31.42;17.67;;;;;;;1.80;74.19;99490.22;10472282;28;20065;-80
2022/12/09 13:56:04;;;;;;;34.08;18.10;;;;;;;1.58;74.37;99495.94;10459288;28;20079;-81
2022/12/09 14:01:18;;;;;;;35.03;18.48;;;;;;;1.76;77.11;99490.53;10459028;28;20553;-78
2022/12/09 14:06:26;;;;;;;35.05;19.08;;;;;;;2.50;78.21;99490.44;10458349;28;20510;-79
2022/12/09 14:11:47;;;;;;;33.38;19.00;;;;;;;3.19;76.65;99494.06;10449531;28;20131;-78
2022/12/09 14:16:50;;;;;;;31.13;17.17;;;;;;;3.71;74.53;99495.09;10448509;28;20080;-81
2022/12/09 14:28:35;;;;;;;35.67;20.42;;;;;;;3.49;72.03;99477.94;10454278;28;20045;-78
2022/12/09 14:33:40;;;;;;;29.80;17.10;;;;;;;3.45;73.22;99483.53;10456865;28;20076;-79
2022/12/09 14:38:49;;;;;;;31.17;18.40;;;;;;;3.51;73.58;99483.13;10463958;28;20041;-81
2022/12/09 14:44:25;;;;;;;36.67;20.52;;;;;;;3.02;70.55;99473.06;10445799;28;20051;-81
2022/12/09 14:49:29;;;;;;;36.28;20.40;;;;;;;2.49;71.77;99474.63;10463114;28;20481;-80
2022/12/09 14:54:35;;;;;;;37.97;20.95;;;;;;;1.97;73.55;99486.56;10434124;28;20041;-81
2022/12/09 14:59:48;;;;;;;35.47;19.73;;;;;;;1.66;74.92;99496.34;10445522;28;20053;-81
2022/12/09 15:04:51;;;;;;;;;;;;;;;1.37;75.74;99499.81;10449655;28;20087;-81
2022/12/09 15:09:56;;;;;;;35.17;18.80;;;;;;;0.87;74.19;99492.91;10462539;28;19921;-80
2022/12/09 15:15:05;;;;;;;33.35;19.70;;;;;;;0.78;75.52;99499.56;10459825;28;20075;-81
2022/12/09 15:20:22;;;;;;;37.13;19.42;;;;;;;0.72;76.95;99507.84;10461041;28;20046;-80
2022/12/09 15:25:26;;;;;;;39.53;20.48;;;;;;;0.61;77.14;99497.84;10439893;28;20045;-81
2022/12/09 15:30:33;;;;;;;33.33;18.02;;;;;;;0.44;76.88;99501.41;10426129;28;20042;-81
2022/12/09 15:35:36;;;;;;;37.35;20.77;;;;;;;0.28;76.90;99506.63;10464184;28;20071;-82
2022/12/09 15:42:05;;;;;;;32.63;18.15;;;;;;;0.26;78.13;99507.66;10443078;28;20086;-80
2022/12/09 15:46:04;;;;;;;41.53;20.85;;;;;;;0.20;78.78;99513.25;10475439;23;20193;-78
2022/12/09 15:51:14;;;;;;;37.17;19.42;;;;;;;0.14;78.66;99519.72;10453363;28;20408;-77
2022/12/09 15:56:22;;;;;;;42.13;21.33;;;;;;;0.15;79.41;99524.91;10446989;28;20049;-77
2022/12/09 16:01:29;;;;;;;43.33;23.42;;;;;;;0.10;79.27;99528.72;10433013;28;20045;-77
2022/12/09 16:06:35;;;;;;;39.78;20.55;;;;;;;0.07;79.65;99529.72;10446211;28;20038;-78
2022/12/09 16:11:39;;;;;;;42.85;21.10;;;;;;;0.02;79.71;99530.88;10433512;28;20131;-78
2022/12/09 16:16:47;;;;;;;42.13;21.42;;;;;;;-0.03;79.98;99531.09;10426345;28;20139;-79
2022/12/09 16:21:53;;;;;;;40.80;21.35;;;;;;;-0.11;79.92;99546.47;10434075;28;20041;-77
2022/12/09 16:26:56;;;;;;;41.70;20.88;;;;;;;-0.16;79.71;99538.81;10439053;28;20037;-78
2022/12/09 16:32:20;;;;;;;44.15;22.42;;;;;;;-0.21;80.17;99546.09;10452633;28;20077;-78
2022/12/09 16:37:36;;;;;;;47.45;22.55;;;;;;;-0.31;79.91;99550.97;10432296;28;20076;-78
2022/12/09 16:42:39;;;;;;;48.60;22.52;;;;;;;-0.45;79.56;99540.25;10432283;28;20041;-78
2022/12/09 16:47:45;;;;;;;50.03;25.35;;;;;;;-0.92;79.78;99539.91;10439118;28;20047;-78
2022/12/09 16:52:48;;;;;;;56.88;25.20;;;;;;;-0.76;80.03;99539.09;10437161;28;20125;-78
2022/12/09 16:57:51;;;;;;;57.60;25.00;;;;;;;-0.68;80.40;99546.66;10441094;28;20079;-78
2022/12/09 17:03:01;;;;;;;54.63;26.63;;;;;;;-0.44;80.76;99549.00;10434181;28;20045;-77
2022/12/09 17:08:04;;;;;;;50.13;24.92;;;;;;;-0.35;80.58;99549.44;10441856;28;20037;-77
2022/12/09 17:13:07;;;;;;;58.85;27.23;;;;;;;-0.18;80.49;99543.31;10429693;28;20497;-77
2022/12/09 17:18:11;;;;;;;50.08;25.38;;;;;;;-0.03;80.24;99551.38;10434665;28;20115;-77
2022/12/09 17:23:14;;;;;;;54.95;25.75;;;;;;;0.02;80.16;99552.84;10420158;28;20472;-77
2022/12/09 17:28:17;;;;;;;66.22;31.55;;;;;;;0.20;80.62;99559.00;10409124;28;20046;-79
2022/12/09 17:33:23;;;;;;;58.65;28.15;;;;;;;0.30;80.15;99557.59;10398519;28;20049;-77
2022/12/09 17:38:28;;;;;;;53.50;24.88;;;;;;;0.25;79.71;99548.19;10406076;28;20045;-76
2022/12/09 17:43:32;;;;;;;49.05;25.00;;;;;;;0.20;79.87;99552.88;10367160;28;20054;-78
2022/12/09 17:48:38;;;;;;;52.20;25.40;;;;;;;0.21;79.60;99546.66;10377958;28;20851;-77
2022/12/09 17:53:42;;;;;;;55.03;26.70;;;;;;;-0.10;78.67;99570.19;10380959;28;20513;-78
2022/12/09 17:58:46;;;;;;;51.80;26.73;;;;;;;-0.16;78.90;99569.66;10387977;28;20094;-78
2022/12/09 18:03:50;;;;;;;51.92;27.33;;;;;;;-0.30;78.66;99570.31;10386897;28;20530;-78
2022/12/09 18:08:59;;;;;;;56.97;27.77;;;;;;;-0.36;78.87;99567.97;10385071;28;20045;-77
2022/12/09 18:14:03;;;;;;;57.80;27.38;;;;;;;-0.45;78.96;99578.97;10364086;28;20133;-77
2022/12/09 18:19:11;;;;;;;55.88;26.73;;;;;;;-0.62;79.15;99567.44;10381341;28;20400;-78
2022/12/09 18:24:14;;;;;;;58.30;29.10;;;;;;;-0.61;79.39;99574.44;10378268;28;20111;-78
2022/12/09 18:29:17;;;;;;;59.55;28.45;;;;;;;-0.64;79.42;99574.56;10374750;28;20069;-77
2022/12/09 18:34:22;;;;;;;71.43;33.85;;;;;;;-0.67;79.23;99581.78;10374865;28;20056;-77
2022/12/09 18:39:24;;;;;;;63.53;28.73;;;;;;;-0.82;79.51;99581.59;10375657;28;20038;-77
2022/12/09 18:44:27;;;;;;;64.53;30.15;;;;;;;-0.96;79.39;99586.63;10377647;28;20473;-77
2022/12/09 18:49:31;;;;;;;64.55;31.55;;;;;;;-0.93;79.66;99591.78;10380825;28;20046;-77
2022/12/09 18:54:35;;;;;;;61.13;31.20;;;;;;;-1.00;79.83;99606.16;10381061;28;20128;-77
2022/12/09 18:59:38;;;;;;;62.83;30.45;;;;;;;-1.04;79.45;99601.94;10379293;28;20038;-77
2022/12/09 19:04:42;;;;;;;67.43;31.90;;;;;;;-1.07;79.58;99608.25;10380532;28;20132;-77
2022/12/09 19:09:45;;;;;;;61.95;29.83;;;;;;;-1.11;79.24;99600.53;10379509;28;20034;-77
2022/12/09 19:14:48;;;;;;;58.63;27.50;;;;;;;-1.13;79.19;99599.72;10376971;28;20038;-77
2022/12/09 19:19:52;;;;;;;61.22;28.75;;;;;;;-1.18;79.31;99603.44;10375039;28;20129;-77
2022/12/09 19:24:55;;;;;;;59.58;28.83;;;;;;;-1.27;79.32;99606.47;10377736;28;20157;-78
2022/12/09 19:29:57;;;;;;;64.40;30.77;;;;;;;-1.25;79.46;99609.91;10379958;28;20125;-77
2022/12/09 19:35:02;;;;;;;78.50;35.00;;;;;;;-1.14;79.87;99611.22;10378528;28;20502;-77
2022/12/09 19:40:07;;;;;;;79.28;35.22;;;;;;;-1.11;79.39;99611.06;10378453;28;20042;-77
2022/12/09 19:45:11;;;;;;;71.43;32.90;;;;;;;-1.07;79.29;99608.25;10361899;28;20038;-77
2022/12/09 19:50:18;;;;;;;73.30;34.72;;;;;;;-1.06;79.64;99614.34;10389933;28;20050;-77
2022/12/09 19:55:21;;;;;;;63.58;31.40;;;;;;;-1.14;79.10;99616.47;10384358;28;20084;-77
2022/12/09 20:00:24;;;;;;;68.18;31.52;;;;;;;-1.23;79.12;99618.59;10376238;28;20104;-77
2022/12/09 20:05:28;;;;;;;63.42;29.88;;;;;;;-1.35;78.42;99621.75;10374519;28;20129;-77
2022/12/09 20:10:31;;;;;;;58.67;29.42;;;;;;;-1.40;79.07;99613.19;10373366;28;20480;-77
2022/12/09 20:15:36;;;;;;;63.50;29.35;;;;;;;-1.46;78.86;99622.22;10373808;28;20502;-76
2022/12/09 20:20:40;;;;;;;57.53;28.85;;;;;;;-1.49;78.71;99621.53;10371965;28;20510;-77
2022/12/09 20:25:50;;;;;;;61.75;28.83;;;;;;;-1.56;78.52;99623.56;10369664;28;20454;-76
2022/12/09 20:30:53;;;;;;;60.50;28.30;;;;;;;-1.56;78.45;99630.59;10371124;28;20050;-76
2022/12/09 20:36:03;;;;;;;56.03;27.55;;;;;;;-1.65;78.53;99622.16;10355865;28;20054;-75
2022/12/09 20:41:09;;;;;;;52.78;26.27;;;;;;;-1.76;78.21;99631.44;10369396;28;20510;-75
2022/12/09 20:46:15;;;;;;;57.88;26.33;;;;;;;-1.72;78.46;99647.06;10354605;28;20042;-77
2022/12/09 20:51:22;;;;;;;60.15;28.02;;;;;;;-1.73;78.51;99637.44;10371152;28;20038;-76
2022/12/09 20:56:26;;;;;;;58.22;27.33;;;;;;;-1.72;78.45;99635.69;10370764;28;20080;-76
2022/12/09 21:01:31;;;;;;;62.38;29.77;;;;;;;-1.72;78.41;99641.81;10354416;28;20081;-76
2022/12/09 21:06:38;;;;;;;62.03;30.23;;;;;;;-1.70;78.61;99652.25;10372157;28;20392;-75
2022/12/09 21:11:41;;;;;;;61.83;28.70;;;;;;;-1.82;78.50;99645.72;10370846;28;20057;-76
2022/12/09 21:16:45;;;;;;;61.13;29.23;;;;;;;-1.93;78.28;99638.28;10354168;28;20502;-76
2022/12/09 21:21:49;;;;;;;59.22;27.30;;;;;;;-1.97;77.99;99639.34;10376408;28;20042;-76
2022/12/09 21:26:54;;;;;;;58.70;29.10;;;;;;;-2.03;77.79;99647.47;10361664;28;20054;-76
2022/12/09 21:31:57;;;;;;;65.18;31.23;;;;;;;-2.01;78.05;99648.25;10377860;28;20049;-77
2022/12/09 21:37:01;;;;;;;63.13;30.00;;;;;;;-2.05;78.07;99654.59;10379383;28;20057;-76
2022/12/09 21:42:04;;;;;;;64.05;31.48;;;;;;;-2.02;78.15;99656.25;10378393;28;20044;-76
2022/12/09 21:47:07;;;;;;;84.75;38.22;;;;;;;-2.05;78.39;99659.84;10370978;23;20046;-78
2022/12/09 21:52:11;;;;;;;91.07;43.10;;;;;;;-2.09;78.62;99667.00;10291289;28;20035;-79
2022/12/09 21:57:14;;;;;;;96.75;43.80;;;;;;;-2.01;78.87;99663.22;10316995;28;20084;-77
2022/12/09 22:02:17;;;;;;;89.22;40.47;;;;;;;-1.99;78.57;99678.03;10330312;28;20042;-80
2022/12/09 22:07:21;;;;;;;88.93;40.65;;;;;;;-1.93;78.36;99671.66;10325185;28;20074;-79
2022/12/09 22:12:24;;;;;;;102.13;43.13;;;;;;;-1.89;78.50;99670.63;10306798;28;20548;-78
2022/12/09 22:17:27;;;;;;;107.18;45.15;;;;;;;-1.93;78.87;99674.28;10339372;28;20069;-79
2022/12/09 22:22:31;;;;;;;111.07;44.92;;;;;;;-1.85;78.50;99680.09;10333304;28;20046;-78
2022/12/09 22:27:34;;;;;;;110.60;44.10;;;;;;;-1.89;78.35;99666.22;10328614;28;20095;-78
2022/12/09 22:32:36;;;;;;;101.38;44.78;;;;;;;-1.89;78.49;99665.34;10320818;28;20562;-78
2022/12/09 22:37:46;;;;;;;139.32;44.50;;;;;;;-1.81;78.67;99671.16;10342157;28;20054;-78
2022/12/09 22:42:50;;;;;;;186.10;43.97;;;;;;;-1.91;78.58;99680.34;10332190;28;20077;-79
2022/12/09 22:47:54;;;;;;;197.40;45.42;;;;;;;-1.95;79.07;99682.22;10333361;28;20074;-78
2022/12/09 22:52:58;;;;;;;199.75;44.53;;;;;;;-2.09;79.01;99698.56;10328968;28;20047;-78
2022/12/09 22:58:01;;;;;;;137.07;38.13;;;;;;;-2.39;79.18;99698.00;10326977;28;20070;-78
2022/12/09 23:03:04;;;;;;;80.95;38.03;;;;;;;-2.36;79.80;99697.03;10329173;28;20074;-77
2022/12/09 23:08:08;;;;;;;106.05;39.38;;;;;;;-2.30;80.00;99702.06;10314760;28;20051;-78
2022/12/09 23:13:11;;;;;;;131.20;37.45;;;;;;;-2.48;79.29;99698.38;10323051;28;20117;-79
2022/12/09 23:18:14;;;;;;;88.82;36.47;;;;;;;-2.69;79.62;99700.03;10325832;28;20538;-78
2022/12/09 23:23:19;;;;;;;77.70;36.78;;;;;;;-2.74;79.79;99699.38;10329986;28;20458;-78
2022/12/09 23:28:22;;;;;;;90.18;40.22;;;;;;;-2.65;80.24;99698.16;10316655;28;20070;-79
2022/12/09 23:33:24;;;;;;;95.45;41.47;;;;;;;-2.54;80.48;99699.47;10314983;28;20058;-78